Salsbury Cove, Maine
Current Conditions -  °F | °C
As of 11:15 AM on Tuesday 21 Oct 2014 (Local Time) from KBHB Reporting Station
Clear Clear  
Wind Chill: 11°   Ceiling: Unl
Heat Index: 11°   Visibility: 10mi
Dew Point:   Wind: 5mph
Humidity: 76%   Direction: 70°ENE
Pressure: 30.11"   Gusts: NA
Location:  44.43°N, 68.28°W
Report Text: KBHB 211515Z AUTO 07004KT 10SM CLR 11/07 A3011 RMK AO1
Loading
Personal Weather Stations






























Interactive Weather Map
Tropical Storm Tracking
New forecast layout! Learn more

10-Day Weather Forecast

Advertisements
Track Severe Weather on mobile